createdAt,value
2022-07-29T00:00:00.301Z,58.70
2022-07-29T00:02:28.925Z,58.99
2022-07-29T00:04:57.318Z,59.04
2022-07-29T00:07:26.925Z,58.75
2022-07-29T00:09:55.342Z,61.00
2022-07-29T00:12:26.666Z,61.46
2022-07-29T00:14:57.110Z,62.42
2022-07-29T00:17:27.988Z,61.74
2022-07-29T00:19:56.182Z,61.81
2022-07-29T00:22:27.759Z,61.73
2022-07-29T00:24:55.895Z,59.79
2022-07-29T00:28:18.009Z,58.85
2022-07-29T00:30:51.660Z,57.59
2022-07-29T00:33:23.113Z,56.55
2022-07-29T00:35:50.782Z,56.77
2022-07-29T00:38:58.454Z,56.99
2022-07-29T00:41:54.883Z,56.19
2022-07-29T00:44:24.063Z,56.05
2022-07-29T00:46:53.249Z,55.56
2022-07-29T00:49:21.697Z,54.96
2022-07-29T00:51:51.817Z,55.07
2022-07-29T00:54:20.026Z,55.07
2022-07-29T00:56:48.721Z,55.84
2022-07-29T00:59:18.243Z,57.13
2022-07-29T01:01:46.478Z,56.98
2022-07-29T01:04:14.861Z,56.67
2022-07-29T01:06:45.261Z,57.38
2022-07-29T01:09:14.409Z,59.08
2022-07-29T01:11:43.200Z,58.91
2022-07-29T01:14:12.109Z,59.40
2022-07-29T01:16:53.439Z,59.18
2022-07-29T01:19:47.329Z,58.40
2022-07-29T01:22:28.282Z,57.66
2022-07-29T01:25:28.382Z,56.01
2022-07-29T01:28:24.499Z,55.09
2022-07-29T01:30:57.214Z,56.53
2022-07-29T01:33:41.908Z,56.52
2022-07-29T01:36:15.114Z,55.27
2022-07-29T01:38:47.668Z,54.40
2022-07-29T01:41:19.658Z,54.45
2022-07-29T01:43:54.064Z,53.74
2022-07-29T01:46:29.579Z,53.59
2022-07-29T01:49:02.058Z,53.39
2022-07-29T01:51:36.118Z,54.96
2022-07-29T01:54:07.608Z,54.55
2022-07-29T01:56:37.857Z,54.05
2022-07-29T01:59:08.744Z,53.94
2022-07-29T02:01:42.878Z,54.34
2022-07-29T02:04:29.364Z,53.77
2022-07-29T02:07:05.863Z,54.01
2022-07-29T02:09:35.795Z,53.27
2022-07-29T02:12:06.234Z,53.01
2022-07-29T02:14:38.490Z,53.27
2022-07-29T02:17:08.720Z,53.53
2022-07-29T02:19:40.221Z,53.98
2022-07-29T02:22:09.083Z,54.66
2022-07-29T02:24:39.153Z,55.47
2022-07-29T02:27:07.992Z,55.97
2022-07-29T02:29:39.386Z,56.33
2022-07-29T02:32:09.265Z,57.47
2022-07-29T02:34:40.211Z,55.52
2022-07-29T02:37:11.343Z,55.94
2022-07-29T02:39:41.398Z,57.14
2022-07-29T02:42:12.252Z,58.18
2022-07-29T02:44:45.903Z,57.91
2022-07-29T02:47:43.789Z,59.42
2022-07-29T02:50:17.547Z,59.56
2022-07-29T02:52:49.830Z,59.63
2022-07-29T02:55:24.231Z,59.55
2022-07-29T02:58:00.169Z,59.23
2022-07-29T03:00:30.534Z,60.09
2022-07-29T03:03:02.066Z,60.18
2022-07-29T03:05:31.361Z,61.68
2022-07-29T03:08:10.569Z,61.34
2022-07-29T03:10:41.306Z,62.76
2022-07-29T03:13:10.205Z,62.35
2022-07-29T03:15:39.234Z,62.60
2022-07-29T03:18:09.737Z,61.60
2022-07-29T03:20:39.720Z,61.94
2022-07-29T03:23:10.466Z,62.82
2022-07-29T03:25:38.839Z,61.39
2022-07-29T03:28:07.094Z,61.66
2022-07-29T03:30:35.339Z,61.91
2022-07-29T03:33:03.426Z,63.17
2022-07-29T03:35:58.985Z,62.48
2022-07-29T03:38:30.780Z,63.68
2022-07-29T03:41:03.600Z,64.46
2022-07-29T03:43:35.199Z,64.73
2022-07-29T03:46:06.305Z,64.20
2022-07-29T03:48:42.203Z,64.23
2022-07-29T03:51:12.113Z,63.82
2022-07-29T03:53:41.402Z,64.18
2022-07-29T03:56:12.473Z,63.04
2022-07-29T03:58:41.244Z,63.63
2022-07-29T04:01:09.815Z,65.15
2022-07-29T04:03:38.034Z,64.42
2022-07-29T04:06:07.882Z,64.19
2022-07-29T04:08:37.395Z,65.23
2022-07-29T04:11:08.004Z,64.62
2022-07-29T04:13:38.147Z,63.83
2022-07-29T04:16:07.400Z,63.58
2022-07-29T04:18:35.741Z,65.06
2022-07-29T04:21:06.339Z,63.78
2022-07-29T04:23:35.565Z,64.81
2022-07-29T04:26:17.621Z,66.12
2022-07-29T04:28:52.816Z,65.20
2022-07-29T04:31:25.749Z,65.87
2022-07-29T04:33:55.221Z,63.90
2022-07-29T04:36:28.546Z,63.11
2022-07-29T04:38:58.974Z,65.34
2022-07-29T04:41:33.029Z,64.55
2022-07-29T04:44:07.437Z,64.88
2022-07-29T04:46:37.639Z,64.16
2022-07-29T04:49:06.105Z,64.39
2022-07-29T04:51:35.315Z,65.27
2022-07-29T04:54:05.762Z,64.67
2022-07-29T04:56:35.342Z,63.89
2022-07-29T04:59:03.463Z,64.38
2022-07-29T05:01:31.734Z,63.26
2022-07-29T05:04:00.732Z,63.53
2022-07-29T05:06:29.281Z,62.76
2022-07-29T05:08:57.572Z,62.75
2022-07-29T05:11:30.280Z,61.22
2022-07-29T05:14:00.145Z,61.03
2022-07-29T05:16:29.291Z,59.84
2022-07-29T05:18:59.385Z,57.39
2022-07-29T05:21:27.568Z,55.41
2022-07-29T05:23:55.725Z,57.72
2022-07-29T05:26:23.893Z,55.20
2022-07-29T05:28:52.141Z,55.43
2022-07-29T05:31:21.811Z,54.78
2022-07-29T05:33:49.950Z,52.54
2022-07-29T05:36:19.335Z,52.38
2022-07-29T05:38:47.617Z,52.59
2022-07-29T05:41:15.916Z,54.86
2022-07-29T05:43:45.414Z,54.04
2022-07-29T05:46:15.086Z,52.16
2022-07-29T05:48:44.810Z,52.60
2022-07-29T05:51:13.079Z,51.89
2022-07-29T05:53:41.559Z,52.98
2022-07-29T05:56:10.773Z,50.77
2022-07-29T05:58:38.984Z,50.43
2022-07-29T06:01:08.331Z,51.29
2022-07-29T06:03:38.827Z,50.07
2022-07-29T06:06:08.617Z,51.31
2022-07-29T06:08:41.184Z,50.49
2022-07-29T06:11:11.401Z,49.35
2022-07-29T06:13:39.716Z,48.85
2022-07-29T06:16:07.953Z,49.37
2022-07-29T06:18:36.453Z,48.40
2022-07-29T06:21:11.946Z,48.06
2022-07-29T06:23:40.515Z,48.59
2022-07-29T06:26:09.021Z,47.82
2022-07-29T06:28:37.092Z,47.80
2022-07-29T06:31:05.730Z,46.96
2022-07-29T06:33:34.581Z,48.04
2022-07-29T06:36:02.704Z,49.35
2022-07-29T06:38:34.340Z,48.01
2022-07-29T06:41:13.361Z,47.81
2022-07-29T06:43:51.891Z,47.60
2022-07-29T06:46:24.461Z,48.68
2022-07-29T06:48:53.630Z,47.99
2022-07-29T06:51:23.847Z,47.22
2022-07-29T06:53:59.738Z,47.83
2022-07-29T06:56:39.061Z,46.82
2022-07-29T06:59:09.801Z,46.24
2022-07-29T07:01:39.079Z,46.03
2022-07-29T07:04:07.396Z,46.25
2022-07-29T07:06:35.711Z,45.41
2022-07-29T07:09:05.482Z,46.65
2022-07-29T07:11:33.779Z,44.99
2022-07-29T07:14:03.931Z,44.82
2022-07-29T07:16:33.498Z,44.45
2022-07-29T07:19:01.671Z,44.72
2022-07-29T07:21:30.141Z,43.91
2022-07-29T07:23:58.982Z,43.41
2022-07-29T07:26:28.628Z,43.22
2022-07-29T07:28:56.943Z,44.78
2022-07-29T07:31:25.316Z,43.73
2022-07-29T07:33:54.572Z,42.39
2022-07-29T07:36:23.016Z,43.00
2022-07-29T07:38:53.920Z,42.72
2022-07-29T07:41:22.196Z,42.73
2022-07-29T07:43:51.798Z,43.41
2022-07-29T07:46:20.709Z,43.63
2022-07-29T07:48:49.214Z,43.86
2022-07-29T07:51:17.500Z,43.17
2022-07-29T07:53:48.294Z,43.96
2022-07-29T07:56:17.313Z,42.96
2022-07-29T07:58:45.421Z,42.10
2022-07-29T08:01:15.157Z,41.62
2022-07-29T08:03:43.308Z,41.64
2022-07-29T08:06:11.490Z,42.96
2022-07-29T08:08:39.576Z,42.56
2022-07-29T08:11:09.769Z,41.64
2022-07-29T08:13:39.489Z,41.78
2022-07-29T08:16:17.386Z,42.49
2022-07-29T08:18:48.539Z,41.88
2022-07-29T08:21:17.434Z,40.60
2022-07-29T08:23:58.453Z,41.17
2022-07-29T08:26:27.162Z,40.49
2022-07-29T08:28:55.400Z,40.62
2022-07-29T08:31:25.645Z,40.93
2022-07-29T08:33:59.170Z,40.76
2022-07-29T08:36:27.431Z,39.78
2022-07-29T08:38:55.537Z,40.31
2022-07-29T08:41:23.856Z,39.01
2022-07-29T08:43:53.010Z,39.42
2022-07-29T08:46:22.173Z,39.09
2022-07-29T08:48:50.471Z,38.03
2022-07-29T08:51:22.019Z,38.71
2022-07-29T08:53:51.896Z,38.66
2022-07-29T08:56:21.314Z,37.94
2022-07-29T08:58:52.276Z,37.80
2022-07-29T09:01:35.667Z,37.64
2022-07-29T09:04:07.085Z,37.30
2022-07-29T09:06:42.776Z,36.97
2022-07-29T09:09:11.428Z,37.13
2022-07-29T09:11:39.774Z,37.14
2022-07-29T09:14:08.128Z,37.19
2022-07-29T09:16:53.506Z,36.19
2022-07-29T09:19:28.780Z,36.67
2022-07-29T09:21:59.995Z,36.80
2022-07-29T09:24:38.716Z,35.82
2022-07-29T09:27:20.972Z,34.78
2022-07-29T09:29:51.736Z,34.13
2022-07-29T09:32:19.909Z,34.54
2022-07-29T09:34:48.235Z,34.01
2022-07-29T09:37:29.541Z,33.03
2022-07-29T09:39:57.767Z,32.61
2022-07-29T09:42:33.561Z,33.22
2022-07-29T09:45:03.766Z,33.29
2022-07-29T09:47:46.072Z,32.93
2022-07-29T09:50:14.729Z,33.01
2022-07-29T09:52:52.498Z,31.73
2022-07-29T09:55:21.412Z,31.82
2022-07-29T09:57:50.291Z,32.34
2022-07-29T10:00:20.608Z,31.36
2022-07-29T10:02:50.145Z,31.95
2022-07-29T10:05:20.820Z,30.80
2022-07-29T10:07:54.162Z,28.61
2022-07-29T10:10:25.686Z,30.42
2022-07-29T10:12:56.011Z,30.32
2022-07-29T10:15:26.647Z,29.04
2022-07-29T10:17:56.640Z,28.76
2022-07-29T10:20:30.523Z,29.28
2022-07-29T10:23:00.260Z,29.17
2022-07-29T10:25:29.126Z,29.29
2022-07-29T10:27:57.665Z,28.99
2022-07-29T10:30:27.904Z,29.46
2022-07-29T10:33:19.037Z,28.38
2022-07-29T10:36:18.617Z,29.03
2022-07-29T10:39:12.171Z,29.16
2022-07-29T10:42:01.526Z,28.48
2022-07-29T10:44:32.279Z,28.64
2022-07-29T10:47:02.679Z,28.57
2022-07-29T10:49:31.309Z,27.44
2022-07-29T10:52:02.372Z,27.45
2022-07-29T10:54:53.777Z,28.34
2022-07-29T10:57:52.746Z,28.01
2022-07-29T11:00:34.864Z,27.07
2022-07-29T11:03:04.701Z,27.36
2022-07-29T11:06:00.180Z,28.15
2022-07-29T11:08:28.966Z,28.70
2022-07-29T11:11:37.996Z,27.49
2022-07-29T11:14:10.542Z,28.18
2022-07-29T11:17:00.933Z,27.97
2022-07-29T11:19:30.622Z,27.92
2022-07-29T11:21:59.498Z,28.03
2022-07-29T11:24:33.464Z,27.78
2022-07-29T11:30:06.347Z,28.17
2022-07-29T11:32:40.028Z,28.28
2022-07-29T11:35:19.051Z,27.72
2022-07-29T11:40:37.000Z,27.88
2022-07-29T11:43:07.197Z,27.83
2022-07-29T11:45:49.096Z,27.02
2022-07-29T11:51:13.180Z,26.91
2022-07-29T11:53:52.666Z,25.68
2022-07-29T11:56:25.727Z,26.62
2022-07-29T12:02:18.472Z,27.52
2022-07-29T12:04:51.442Z,26.95
2022-07-29T12:07:01.386Z,28.75
2022-07-29T12:07:02.107Z,27.91
2022-07-29T12:07:33.788Z,27.15
2022-07-29T12:10:06.294Z,28.22
2022-07-29T12:12:35.063Z,27.36
2022-07-29T12:15:18.711Z,26.75
2022-07-29T12:17:50.459Z,26.76
2022-07-29T12:20:25.630Z,26.81
2022-07-29T12:22:56.334Z,26.70
2022-07-29T12:25:32.390Z,26.31
2022-07-29T12:28:02.528Z,26.47
2022-07-29T12:30:41.534Z,26.30
2022-07-29T12:33:16.402Z,26.46
2022-07-29T12:35:54.077Z,26.30
2022-07-29T12:38:32.648Z,26.21
2022-07-29T12:41:01.116Z,26.34
2022-07-29T12:43:29.418Z,26.62
2022-07-29T12:45:59.197Z,26.62
2022-07-29T12:48:38.888Z,26.27
2022-07-29T12:51:09.904Z,27.12
2022-07-29T12:53:41.147Z,26.47
2022-07-29T12:56:41.681Z,26.52
2022-07-29T12:59:17.963Z,25.46
2022-07-29T13:01:48.175Z,25.70
2022-07-29T13:04:30.928Z,25.42
2022-07-29T13:07:04.813Z,26.28
2022-07-29T13:09:40.812Z,27.04
2022-07-29T13:12:11.231Z,26.97
2022-07-29T13:14:41.372Z,27.22
2022-07-29T13:17:12.268Z,28.13
2022-07-29T13:19:43.548Z,27.27
2022-07-29T13:22:12.401Z,27.31
2022-07-29T13:24:51.589Z,27.47
2022-07-29T13:27:20.764Z,27.92
2022-07-29T13:30:00.638Z,27.65
2022-07-29T13:32:30.728Z,27.35
2022-07-29T13:35:01.632Z,27.31
2022-07-29T13:37:39.228Z,27.39
2022-07-29T13:40:08.652Z,28.16
2022-07-29T13:42:37.324Z,28.45
2022-07-29T13:45:09.065Z,27.00
2022-07-29T13:47:37.619Z,27.32
2022-07-29T13:50:08.609Z,27.68
2022-07-29T13:52:36.887Z,27.66
2022-07-29T13:55:06.084Z,26.85
2022-07-29T13:57:34.308Z,26.84
2022-07-29T14:00:02.456Z,27.67
2022-07-29T14:02:39.472Z,27.37
2022-07-29T14:05:08.826Z,27.42
2022-07-29T14:07:40.909Z,27.39
2022-07-29T14:10:10.219Z,27.21
2022-07-29T14:16:56.791Z,26.46
2022-07-29T14:23:50.890Z,26.71
2022-07-29T14:35:07.533Z,25.38
2022-07-29T14:42:02.101Z,27.31
2022-07-29T14:48:49.629Z,27.18
2022-07-29T14:55:43.082Z,26.45
2022-07-29T15:02:52.197Z,26.68
2022-07-29T15:09:47.536Z,26.77
2022-07-29T15:16:30.537Z,26.26
2022-07-29T15:23:24.989Z,26.97
2022-07-29T15:34:29.745Z,27.33
2022-07-29T15:41:24.260Z,26.53
2022-07-29T15:48:06.402Z,26.89
2022-07-29T15:55:02.405Z,26.97
2022-07-29T16:01:50.004Z,27.62
2022-07-29T16:12:41.443Z,28.09
2022-07-29T16:19:28.938Z,27.20
2022-07-29T16:26:23.685Z,27.54
2022-07-29T16:37:54.020Z,27.88
2022-07-29T16:44:47.574Z,27.91
2022-07-29T16:51:41.577Z,29.30
2022-07-29T16:58:35.233Z,29.28
2022-07-29T17:05:27.962Z,29.29
2022-07-29T17:12:15.609Z,30.28
2022-07-29T17:19:09.947Z,30.55
2022-07-29T17:25:49.488Z,31.78
2022-07-29T17:37:01.359Z,33.82
2022-07-29T17:43:48.944Z,31.90
2022-07-29T17:50:48.428Z,33.37
2022-07-29T17:57:41.922Z,32.99
2022-07-29T18:04:34.760Z,33.68
2022-07-29T18:11:15.610Z,33.55
2022-07-29T18:18:16.452Z,37.45
2022-07-29T18:25:02.553Z,38.39
2022-07-29T18:31:48.525Z,38.55
2022-07-29T18:42:46.017Z,38.90
2022-07-29T18:49:35.405Z,38.94
2022-07-29T18:53:01.231Z,38.72
2022-07-29T18:56:49.080Z,38.98
2022-07-29T19:03:42.978Z,39.42
2022-07-29T19:06:14.857Z,39.71
2022-07-29T19:08:43.492Z,39.92
2022-07-29T19:11:12.933Z,40.10
2022-07-29T19:13:42.485Z,40.33
2022-07-29T19:16:13.509Z,40.18
2022-07-29T19:18:49.149Z,40.34
2022-07-29T19:21:17.637Z,40.99
2022-07-29T19:24:05.963Z,40.70
2022-07-29T19:26:36.762Z,41.19
2022-07-29T19:29:05.534Z,41.71
2022-07-29T19:31:33.740Z,41.96
2022-07-29T19:34:03.425Z,41.90
2022-07-29T19:36:32.899Z,42.32
2022-07-29T19:39:01.730Z,42.14
2022-07-29T19:41:29.900Z,41.44
2022-07-29T19:43:58.082Z,41.20
2022-07-29T19:46:29.077Z,41.29
2022-07-29T19:48:58.170Z,41.19
2022-07-29T19:51:27.787Z,41.64
2022-07-29T19:53:55.926Z,41.88
2022-07-29T19:56:29.924Z,42.60
2022-07-29T19:58:58.739Z,42.92
2022-07-29T20:01:27.880Z,43.41
2022-07-29T20:03:56.057Z,43.54
2022-07-29T20:06:24.256Z,43.58
2022-07-29T20:08:58.434Z,43.65
2022-07-29T20:11:29.773Z,43.81
2022-07-29T20:13:58.054Z,44.23
2022-07-29T20:16:26.235Z,44.36
2022-07-29T20:18:54.446Z,44.54
2022-07-29T20:21:22.543Z,44.90
2022-07-29T20:23:50.931Z,44.72
2022-07-29T20:26:23.251Z,44.75
2022-07-29T20:28:51.353Z,44.83
2022-07-29T20:31:20.210Z,44.88
2022-07-29T20:33:48.730Z,45.88
2022-07-29T20:36:16.975Z,45.97
2022-07-29T20:38:45.087Z,46.06
2022-07-29T20:41:13.243Z,46.10
2022-07-29T20:43:43.454Z,45.59
2022-07-29T20:46:11.671Z,45.77
2022-07-29T20:48:40.955Z,45.70
2022-07-29T20:51:09.213Z,45.81
2022-07-29T20:53:39.022Z,45.94
2022-07-29T20:56:08.146Z,45.93
2022-07-29T20:58:36.743Z,46.03
2022-07-29T21:01:07.140Z,46.14
2022-07-29T21:03:35.497Z,46.32
2022-07-29T21:06:05.949Z,46.02
2022-07-29T21:08:34.192Z,46.04
2022-07-29T21:11:02.573Z,45.80
2022-07-29T21:13:33.066Z,45.94
2022-07-29T21:16:04.324Z,46.09
2022-07-29T21:18:37.637Z,46.19
2022-07-29T21:21:06.696Z,46.15
2022-07-29T21:23:37.245Z,45.99
2022-07-29T21:26:08.748Z,46.13
2022-07-29T21:28:40.710Z,46.76
2022-07-29T21:31:12.548Z,46.50
2022-07-29T21:33:44.473Z,46.80
2022-07-29T21:36:47.936Z,47.01
2022-07-29T21:39:07.027Z,47.38
2022-07-29T21:41:35.616Z,47.45
2022-07-29T21:44:04.159Z,47.64
2022-07-29T21:46:32.739Z,47.61
2022-07-29T21:49:02.347Z,48.10
2022-07-29T21:51:30.642Z,48.42
2022-07-29T21:53:59.123Z,48.53
2022-07-29T21:56:27.810Z,48.82
2022-07-29T21:58:56.444Z,48.89
2022-07-29T22:01:25.489Z,49.31
2022-07-29T22:03:56.087Z,49.44
2022-07-29T22:06:25.884Z,49.14
2022-07-29T22:08:54.066Z,49.21
2022-07-29T22:11:22.487Z,49.54
2022-07-29T22:13:50.640Z,50.25
2022-07-29T22:16:19.324Z,50.06
2022-07-29T22:18:48.475Z,50.36
2022-07-29T22:21:18.981Z,50.51
2022-07-29T22:23:52.465Z,50.63
2022-07-29T22:26:20.666Z,50.96
2022-07-29T22:28:48.787Z,50.82
2022-07-29T22:31:17.301Z,51.17
2022-07-29T22:33:47.533Z,51.32
2022-07-29T22:36:16.052Z,51.38
2022-07-29T22:38:45.284Z,51.58
2022-07-29T22:41:16.776Z,51.68
2022-07-29T22:43:45.049Z,52.74
2022-07-29T22:46:13.518Z,52.59
2022-07-29T22:48:41.814Z,53.44
2022-07-29T22:51:10.197Z,52.58
2022-07-29T22:53:38.399Z,52.58
2022-07-29T22:56:06.562Z,52.52
2022-07-29T22:58:36.196Z,53.39
2022-07-29T23:01:04.506Z,53.71
2022-07-29T23:03:33.008Z,52.74
2022-07-29T23:06:01.455Z,53.21
2022-07-29T23:08:29.712Z,53.86
2022-07-29T23:10:57.846Z,53.42
2022-07-29T23:13:25.971Z,54.07
2022-07-29T23:15:55.599Z,54.20
2022-07-29T23:18:23.682Z,54.46
2022-07-29T23:20:52.199Z,54.90
2022-07-29T23:23:20.677Z,55.68
2022-07-29T23:25:48.871Z,55.81
2022-07-29T23:28:17.932Z,55.95
2022-07-29T23:30:46.486Z,56.20
2022-07-29T23:33:16.271Z,56.19
2022-07-29T23:35:47.456Z,56.49
2022-07-29T23:38:15.840Z,56.35
2022-07-29T23:40:44.206Z,56.40
2022-07-29T23:43:12.364Z,56.33
2022-07-29T23:45:44.750Z,56.36
2022-07-29T23:48:18.139Z,57.04
2022-07-29T23:50:46.236Z,56.75
2022-07-29T23:53:14.760Z,57.65
2022-07-29T23:55:43.466Z,57.51
2022-07-29T23:58:11.678Z,57.14
